Time;durP1;ratioP1;P1;durP2;ratioP2;P2;SDS_P1;SDS_P2;PMS_P1;PMS_P2;Temp;Humidity;BMP_temperature;BMP_pressure;BME280_temperature;BME280_humidity;BME280_pressure;Samples;Min_cycle;Max_cycle;Signal;HPM_P1;HPM_P2
2023/07/12 00:01:20;;;;;;;7.50;2.10;;;20.60;91.00;;;;;;4872633;28;92537;-83
2023/07/12 00:03:46;;;;;;;8.48;2.25;;;20.50;91.10;;;;;;4865461;28;95928;-82
2023/07/12 00:06:18;;;;;;;3.50;2.00;;;20.40;91.30;;;;;;4857309;28;96533;-82
2023/07/12 00:08:44;;;;;;;6.50;2.25;;;20.40;92.00;;;;;;4873469;28;92902;-82
2023/07/12 00:11:14;;;;;;;7.75;2.55;;;20.30;92.10;;;;;;4859089;28;92076;-83
2023/07/12 00:13:41;;;;;;;12.63;2.80;;;20.30;92.20;;;;;;4860771;28;96911;-83
2023/07/12 00:16:20;;;;;;;6.97;2.30;;;20.20;92.30;;;;;;4868467;28;95971;-83
2023/07/12 00:18:46;;;;;;;5.32;2.00;;;20.20;92.60;;;;;;4867612;28;93356;-83
2023/07/12 00:21:12;;;;;;;8.48;2.10;;;20.20;92.60;;;;;;4860086;28;93114;-83
2023/07/12 00:23:38;;;;;;;5.47;1.90;;;20.20;92.70;;;;;;4866497;28;95968;-82
2023/07/12 00:26:19;;;;;;;6.55;1.92;;;20.20;92.60;;;;;;4860818;28;95137;-82
2023/07/12 00:28:44;;;;;;;5.35;2.10;;;20.20;92.60;;;;;;4878015;28;93078;-83
2023/07/12 00:31:10;;;;;;;4.93;2.25;;;20.20;92.60;;;;;;4860547;28;92531;-83
2023/07/12 00:33:35;;;;;;;6.28;1.95;;;20.20;92.80;;;;;;4876501;28;93749;-83
2023/07/12 00:36:01;;;;;;;10.80;2.17;;;20.20;92.70;;;;;;4876035;28;96392;-83
2023/07/12 00:38:27;;;;;;;4.38;1.80;;;20.20;92.70;;;;;;4859926;28;92965;-83
2023/07/12 00:41:04;;;;;;;7.05;1.52;;;20.10;92.60;;;;;;4859029;28;93569;-83
2023/07/12 00:43:46;;;;;;;6.25;2.30;;;20.20;92.70;;;;;;4867957;28;97864;-83
2023/07/12 00:46:11;;;;;;;8.57;2.20;;;20.20;92.80;;;;;;4859571;28;97375;-83
2023/07/12 00:48:37;;;;;;;5.82;1.88;;;20.20;92.60;;;;;;4876177;28;93113;-83
2023/07/12 00:51:27;;;;;;;8.30;2.10;;;20.20;92.40;;;;;;4860157;28;93521;-83
2023/07/12 00:53:55;;;;;;;15.75;2.25;;;20.10;91.70;;;;;;4859719;28;96420;-83
2023/07/12 00:56:20;;;;;;;9.23;1.85;;;20.10;91.50;;;;;;4875236;28;95329;-83
2023/07/12 00:58:49;;;;;;;5.47;1.50;;;20.20;91.20;;;;;;4859776;28;92632;-83
2023/07/12 01:01:16;;;;;;;2.65;1.05;;;20.20;90.40;;;;;;4859559;28;92187;-83
2023/07/12 01:03:44;;;;;;;5.60;1.70;;;20.20;90.00;;;;;;4875744;28;92768;-83
2023/07/12 01:06:12;;;;;;;2.78;0.90;;;20.20;88.40;;;;;;4859793;28;95011;-82
2023/07/12 01:08:41;;;;;;;6.45;1.77;;;20.20;87.60;;;;;;4875896;28;93600;-82
2023/07/12 01:11:09;;;;;;;6.13;1.27;;;20.20;87.00;;;;;;4875811;28;92671;-83
2023/07/12 01:13:38;;;;;;;3.33;1.02;;;20.20;86.60;;;;;;4859675;28;94772;-83
2023/07/12 01:16:04;;;;;;;2.20;0.80;;;20.20;85.80;;;;;;4859806;28;96733;-83
2023/07/12 01:18:30;;;;;;;2.97;1.08;;;20.10;85.60;;;;;;4859952;28;92852;-83
2023/07/12 01:21:13;;;;;;;2.78;0.95;;;20.10;85.00;;;;;;4875189;28;92763;-83
2023/07/12 01:23:41;;;;;;;1.70;0.80;;;20.10;85.30;;;;;;4857578;28;97801;-82
2023/07/12 01:26:16;;;;;;;6.97;1.38;;;20.10;85.90;;;;;;4874515;28;97058;-81
2023/07/12 01:28:42;;;;;;;5.82;1.58;;;20.00;88.50;;;;;;4874184;28;92376;-79
2023/07/12 01:31:07;;;;;;;5.10;1.40;;;19.90;90.20;;;;;;4874066;28;92751;-80
2023/07/12 01:33:33;;;;;;;3.78;1.00;;;19.80;90.70;;;;;;4858055;28;96433;-79
2023/07/12 01:35:58;;;;;;;10.70;1.50;;;19.60;90.90;;;;;;4874707;28;97019;-79
2023/07/12 01:38:24;;;;;;;4.85;1.23;;;19.50;91.20;;;;;;4875944;28;92730;-79
2023/07/12 01:40:50;;;;;;;5.65;1.17;;;19.40;91.70;;;;;;4858488;28;92555;-80
2023/07/12 01:43:16;;;;;;;4.50;1.30;;;19.40;91.90;;;;;;4875144;28;93729;-80
2023/07/12 01:45:42;;;;;;;4.13;1.40;;;19.30;92.00;;;;;;4874788;28;92856;-80
2023/07/12 01:48:07;;;;;;;5.03;1.70;;;19.20;91.50;;;;;;4874295;28;92682;-80
2023/07/12 01:50:33;;;;;;;4.65;1.50;;;19.20;91.60;;;;;;4875565;28;91924;-80
2023/07/12 01:52:58;;;;;;;3.70;1.15;;;19.00;91.90;;;;;;4859605;28;95354;-81
2023/07/12 01:55:24;;;;;;;5.25;1.35;;;18.90;91.80;;;;;;4875812;28;92943;-80
2023/07/12 01:57:50;;;;;;;2.42;1.17;;;18.80;91.70;;;;;;4874053;28;93553;-80
2023/07/12 02:00:16;;;;;;;3.17;0.93;;;18.70;92.20;;;;;;4874994;28;92723;-80
2023/07/12 02:02:41;;;;;;;5.75;1.15;;;18.60;92.30;;;;;;4875705;28;92819;-79
2023/07/12 02:05:07;;;;;;;5.03;1.42;;;18.60;92.50;;;;;;4866873;28;95840;-80
2023/07/12 02:07:33;;;;;;;5.38;1.20;;;18.60;93.20;;;;;;4874884;28;92810;-80
2023/07/12 02:10:14;;;;;;;3.13;1.45;;;18.60;92.80;;;;;;4873487;28;92762;-80
2023/07/12 02:12:41;;;;;;;3.22;1.40;;;18.60;93.00;;;;;;4874873;28;93710;-80
2023/07/12 02:15:07;;;;;;;2.28;1.20;;;18.60;92.80;;;;;;4874580;28;92396;-80
2023/07/12 02:17:33;;;;;;;6.70;2.22;;;18.50;93.20;;;;;;4866849;28;92761;-79
2023/07/12 02:19:59;;;;;;;7.40;1.70;;;18.40;93.70;;;;;;4875957;28;92890;-79
2023/07/12 02:22:26;;;;;;;2.75;1.45;;;18.40;94.10;;;;;;4874870;28;94690;-79
2023/07/12 02:24:51;;;;;;;2.85;1.50;;;18.30;94.30;;;;;;4857286;28;97424;-79
2023/07/12 02:27:17;;;;;;;3.40;1.23;;;18.30;94.20;;;;;;4858512;28;92689;-79
2023/07/12 02:29:42;;;;;;;2.38;1.20;;;18.20;94.30;;;;;;4875756;28;92584;-79
2023/07/12 02:32:08;;;;;;;3.00;1.42;;;18.20;94.30;;;;;;4876052;28;93242;-79
2023/07/12 02:34:33;;;;;;;5.53;1.52;;;18.20;94.10;;;;;;4872914;28;94105;-79
2023/07/12 02:36:59;;;;;;;3.90;1.45;;;18.20;94.70;;;;;;4872291;28;92435;-79
2023/07/12 02:39:25;;;;;;;7.00;1.70;;;18.20;94.70;;;;;;4873738;28;92082;-79
2023/07/12 02:41:50;;;;;;;5.32;1.48;;;18.10;94.80;;;;;;4875950;28;94176;-79
2023/07/12 02:44:16;;;;;;;2.33;1.35;;;18.00;94.80;;;;;;4874943;28;92858;-79
2023/07/12 02:46:41;;;;;;;3.90;1.40;;;17.90;94.80;;;;;;4874922;28;93480;-79
2023/07/12 02:49:07;;;;;;;4.28;1.58;;;17.90;95.10;;;;;;4873179;28;92663;-79
2023/07/12 02:51:33;;;;;;;3.03;1.55;;;17.80;95.40;;;;;;4874743;28;93682;-78
2023/07/12 02:53:58;;;;;;;5.07;1.67;;;17.70;95.50;;;;;;4857537;28;96005;-80
2023/07/12 02:56:24;;;;;;;5.93;1.85;;;17.60;95.60;;;;;;4876612;28;93053;-79
2023/07/12 02:58:49;;;;;;;6.25;1.77;;;17.60;95.80;;;;;;4875353;28;92989;-81
2023/07/12 03:01:15;;;;;;;4.40;1.40;;;17.50;95.70;;;;;;4875002;28;93420;-82
2023/07/12 03:03:40;;;;;;;7.65;2.13;;;17.50;96.00;;;;;;4857971;28;96229;-79
2023/07/12 03:06:09;;;;;;;5.50;1.40;;;17.50;96.20;;;;;;4874798;28;92188;-79
2023/07/12 03:08:35;;;;;;;6.85;1.73;;;17.50;96.30;;;;;;4875807;28;92110;-81
2023/07/12 03:11:03;;;;;;;8.82;1.83;;;17.40;96.20;;;;;;4872837;28;93662;-81
2023/07/12 03:13:28;;;;;;;5.78;1.33;;;17.40;96.30;;;;;;4864368;28;97433;-81
2023/07/12 03:15:54;;;;;;;7.00;1.67;;;17.40;96.20;;;;;;4873548;28;92948;-79
2023/07/12 03:18:20;;;;;;;5.72;1.58;;;17.40;95.90;;;;;;4874322;28;92883;-82
2023/07/12 03:20:45;;;;;;;7.63;1.38;;;17.40;96.10;;;;;;4875149;28;94093;-79
2023/07/12 03:23:11;;;;;;;2.33;1.35;;;17.40;96.10;;;;;;4873734;28;95493;-79
2023/07/12 03:25:37;;;;;;;2.88;1.35;;;17.40;96.10;;;;;;4874660;28;92886;-79
2023/07/12 03:28:02;;;;;;;3.22;1.38;;;17.40;96.00;;;;;;4875100;28;92157;-80
2023/07/12 03:30:28;;;;;;;7.93;1.60;;;17.40;96.30;;;;;;4873648;28;96110;-79
2023/07/12 03:32:54;;;;;;;6.53;1.60;;;17.40;96.50;;;;;;4873826;28;93352;-80
2023/07/12 03:35:19;;;;;;;2.35;1.60;;;17.40;96.40;;;;;;4857729;28;93874;-80
2023/07/12 03:37:45;;;;;;;5.80;2.08;;;17.30;96.60;;;;;;4874921;28;92421;-82
2023/07/12 03:40:11;;;;;;;5.35;1.58;;;17.30;96.70;;;;;;4873231;28;96319;-84
2023/07/12 03:42:36;;;;;;;3.25;1.50;;;17.30;96.90;;;;;;4874464;28;93454;-79
2023/07/12 03:45:02;;;;;;;3.30;1.30;;;17.30;96.60;;;;;;4866247;28;92311;-79
2023/07/12 03:47:28;;;;;;;2.90;1.23;;;17.30;96.60;;;;;;4860326;28;92478;-84
2023/07/12 03:49:54;;;;;;;3.75;1.38;;;17.30;96.70;;;;;;4860710;28;96201;-80
2023/07/12 03:52:20;;;;;;;2.95;0.90;;;17.30;96.70;;;;;;4860148;28;96371;-81
2023/07/12 03:54:46;;;;;;;5.25;1.27;;;17.30;96.70;;;;;;4877721;28;93148;-80
2023/07/12 03:57:11;;;;;;;2.45;1.13;;;17.40;96.80;;;;;;4859923;28;92678;-81
2023/07/12 03:59:37;;;;;;;2.25;1.10;;;17.40;96.70;;;;;;4878462;28;94303;-81
2023/07/12 04:02:02;;;;;;;4.15;1.20;;;17.30;96.60;;;;;;4868182;28;97568;-83
2023/07/12 04:04:28;;;;;;;2.63;1.15;;;17.40;96.60;;;;;;4860367;28;92469;-83
2023/07/12 04:06:53;;;;;;;4.10;0.90;;;17.40;96.50;;;;;;4860923;28;92582;-81
2023/07/12 04:09:19;;;;;;;2.30;1.15;;;17.40;96.50;;;;;;4859734;28;96444;-84
2023/07/12 04:11:45;;;;;;;2.60;1.02;;;17.40;96.60;;;;;;4877742;28;93482;-83
2023/07/12 04:14:10;;;;;;;4.53;0.93;;;17.40;96.60;;;;;;4862199;28;93146;-80
2023/07/12 04:16:36;;;;;;;4.32;1.33;;;17.30;96.70;;;;;;4876980;28;91813;-82
2023/07/12 04:19:01;;;;;;;5.80;1.27;;;17.30;96.70;;;;;;4859838;28;96646;-80
2023/07/12 04:21:27;;;;;;;4.60;1.10;;;17.40;96.80;;;;;;4859556;28;96823;-80
2023/07/12 04:23:53;;;;;;;3.38;1.05;;;17.40;96.70;;;;;;4876546;28;101875;-82
2023/07/12 04:26:20;;;;;;;4.57;1.25;;;17.40;96.80;;;;;;4877899;28;92937;-81
2023/07/12 04:28:49;;;;;;;4.97;1.73;;;17.40;96.90;;;;;;4859931;28;96715;-80
2023/07/12 04:31:15;;;;;;;7.78;2.10;;;17.30;97.00;;;;;;4859549;28;96190;-81
2023/07/12 04:33:41;;;;;;;4.35;1.45;;;17.30;96.70;;;;;;4875525;28;92597;-82
2023/07/12 04:36:09;;;;;;;7.25;1.85;;;17.30;96.20;;;;;;4876860;28;92810;-83
2023/07/12 04:38:35;;;;;;;3.92;1.67;;;17.30;96.00;;;;;;4878061;28;94143;-82
2023/07/12 04:41:01;;;;;;;4.68;1.98;;;17.20;96.20;;;;;;4860621;28;96201;-82
2023/07/12 04:43:27;;;;;;;6.35;2.03;;;17.20;95.80;;;;;;4877227;28;92843;-82
2023/07/12 04:45:53;;;;;;;5.40;2.13;;;17.20;95.90;;;;;;4877922;28;92672;-81
2023/07/12 04:48:20;;;;;;;6.57;1.90;;;17.10;95.30;;;;;;4873845;28;96626;-81
2023/07/12 04:50:48;;;;;;;5.15;2.33;;;17.20;95.50;;;;;;4866755;28;96711;-81
2023/07/12 04:53:14;;;;;;;4.43;2.20;;;17.20;95.60;;;;;;4877053;28;92348;-81
2023/07/12 04:55:40;;;;;;;8.02;2.55;;;17.20;95.60;;;;;;4859107;28;92966;-82
2023/07/12 04:58:06;;;;;;;7.00;2.00;;;17.20;95.50;;;;;;4873031;28;96375;-83
2023/07/12 05:00:33;;;;;;;7.55;2.85;;;17.20;95.60;;;;;;4860142;28;96722;-83
2023/07/12 05:02:59;;;;;;;7.95;2.90;;;17.10;95.50;;;;;;4875474;28;92540;-82
2023/07/12 05:05:25;;;;;;;7.20;2.90;;;17.10;95.50;;;;;;4875937;28;92124;-84
2023/07/12 05:07:51;;;;;;;7.65;3.10;;;17.10;95.60;;;;;;4859956;28;96316;-82
2023/07/12 05:10:17;;;;;;;9.77;2.65;;;17.10;95.60;;;;;;4867819;28;96216;-83
2023/07/12 05:12:43;;;;;;;6.68;2.78;;;17.10;95.70;;;;;;4859566;28;93299;-83
2023/07/12 05:15:11;;;;;;;8.57;2.67;;;17.20;95.80;;;;;;4866946;28;93224;-83
2023/07/12 05:17:38;;;;;;;7.20;2.58;;;17.20;95.90;;;;;;4868570;28;95963;-83
2023/07/12 05:20:06;;;;;;;8.43;2.47;;;17.30;95.80;;;;;;4875391;28;99621;-82
2023/07/12 05:22:33;;;;;;;7.68;2.42;;;17.30;95.60;;;;;;4874986;28;92816;-81
2023/07/12 05:24:58;;;;;;;8.27;2.25;;;17.30;95.50;;;;;;4865966;28;92827;-82
2023/07/12 05:27:25;;;;;;;5.93;2.03;;;17.30;95.50;;;;;;4872932;28;95355;-81
2023/07/12 05:29:50;;;;;;;6.90;2.25;;;17.30;95.10;;;;;;4872338;28;95028;-82
2023/07/12 05:32:16;;;;;;;6.93;2.17;;;17.30;94.90;;;;;;4857905;28;92915;-83
2023/07/12 05:34:42;;;;;;;9.43;2.10;;;17.30;95.20;;;;;;4873473;28;92935;-82
2023/07/12 05:37:14;;;;;;;6.70;1.73;;;17.30;94.50;;;;;;4855998;28;97398;-85
2023/07/12 05:39:42;;;;;;;9.40;2.08;;;17.30;94.40;;;;;;4856881;28;96440;-84
2023/07/12 05:42:09;;;;;;;5.82;1.95;;;17.30;94.70;;;;;;4875622;28;92931;-82
2023/07/12 05:44:35;;;;;;;6.70;2.42;;;17.40;94.80;;;;;;4876909;28;92900;-82
2023/07/12 05:47:01;;;;;;;6.55;1.70;;;17.40;94.70;;;;;;4875881;28;93810;-83
2023/07/12 05:49:27;;;;;;;4.53;2.00;;;17.50;94.40;;;;;;4877635;28;92657;-82
2023/07/12 05:51:53;;;;;;;14.57;2.15;;;17.50;94.60;;;;;;4860231;28;92652;-83
2023/07/12 05:54:19;;;;;;;8.68;1.67;;;17.50;94.30;;;;;;4874655;28;92206;-83
2023/07/12 05:56:48;;;;;;;9.35;2.53;;;17.50;94.80;;;;;;4866647;28;96949;-84
2023/07/12 05:59:14;;;;;;;9.65;2.25;;;17.50;94.40;;;;;;4867764;28;96672;-84
2023/07/12 06:01:43;;;;;;;7.63;2.30;;;17.50;94.60;;;;;;4859476;28;94145;-83
2023/07/12 06:04:10;;;;;;;8.07;1.48;;;17.50;94.50;;;;;;4875481;28;92692;-84
2023/07/12 06:06:37;;;;;;;9.25;2.00;;;17.60;94.30;;;;;;4867112;28;98527;-85
2023/07/12 06:09:05;;;;;;;6.53;1.90;;;17.70;94.10;;;;;;4850766;28;96423;-85
2023/07/12 06:11:30;;;;;;;5.93;1.80;;;17.70;93.90;;;;;;4875949;28;92913;-85
2023/07/12 06:13:59;;;;;;;7.30;2.22;;;17.80;93.90;;;;;;4859718;28;92979;-84
2023/07/12 06:16:25;;;;;;;2.78;1.23;;;17.80;93.70;;;;;;4858931;28;96989;-85
2023/07/12 06:18:51;;;;;;;5.78;1.75;;;17.80;93.70;;;;;;4858308;28;94910;-85
2023/07/12 06:24:07;;;;;;;5.35;2.05;;;17.90;93.40;;;;;;4875314;28;92837;-84
2023/07/12 06:26:36;;;;;;;6.07;2.13;;;18.00;93.50;;;;;;4857984;28;95757;-83
2023/07/12 06:29:02;;;;;;;6.75;1.70;;;18.00;93.60;;;;;;4856541;28;97117;-85
2023/07/12 06:31:28;;;;;;;7.30;2.17;;;18.00;93.30;;;;;;4865419;28;99065;-85
2023/07/12 06:33:53;;;;;;;6.93;1.83;;;18.00;92.80;;;;;;4859736;28;92773;-86
2023/07/12 06:36:19;;;;;;;11.95;1.63;;;18.10;93.10;;;;;;4858323;28;97007;-84
2023/07/12 06:38:45;;;;;;;5.78;1.65;;;18.10;92.80;;;;;;4857320;28;94594;-86
2023/07/12 06:41:12;;;;;;;6.32;1.70;;;18.20;92.90;;;;;;4868196;28;92587;-85
2023/07/12 06:43:37;;;;;;;6.72;1.60;;;18.20;92.60;;;;;;4865986;28;91991;-84
2023/07/12 06:46:03;;;;;;;7.32;1.88;;;18.20;92.40;;;;;;4859612;28;96109;-85
2023/07/12 06:48:29;;;;;;;9.38;2.20;;;18.20;92.40;;;;;;4858102;28;96128;-85
2023/07/12 06:50:58;;;;;;;9.20;2.50;;;18.20;91.60;;;;;;4864758;28;94138;-87
2023/07/12 06:53:26;;;;;;;9.55;2.08;;;18.20;91.90;;;;;;4858955;28;92302;-87
2023/07/12 06:55:53;;;;;;;4.53;1.73;;;18.30;91.80;;;;;;4859051;28;95357;-86
2023/07/12 06:58:19;;;;;;;10.93;2.03;;;18.30;91.40;;;;;;4865889;28;96320;-86
2023/07/12 07:00:44;;;;;;;10.93;1.85;;;18.40;91.80;;;;;;4859693;28;92629;-87
2023/07/12 07:03:12;;;;;;;6.03;1.60;;;18.40;91.90;;;;;;4858051;28;94123;-86
2023/07/12 07:05:40;;;;;;;9.25;2.05;;;18.40;91.10;;;;;;4875196;28;96708;-87
2023/07/12 07:08:07;;;;;;;7.65;1.55;;;18.60;91.10;;;;;;4860101;28;100628;-85
2023/07/12 07:10:33;;;;;;;6.85;1.55;;;18.60;91.30;;;;;;4873955;28;92367;-86
2023/07/12 07:12:59;;;;;;;6.45;2.15;;;18.80;90.00;;;;;;4866945;28;92658;-84
2023/07/12 07:15:25;;;;;;;6.88;1.98;;;18.80;90.30;;;;;;4865510;28;97436;-86
2023/07/12 07:17:51;;;;;;;9.57;2.00;;;18.90;90.10;;;;;;4857060;28;97383;-86
2023/07/12 07:20:16;;;;;;;9.02;1.67;;;18.90;90.40;;;;;;4860050;28;92848;-85
2023/07/12 07:22:42;;;;;;;9.68;1.85;;;18.90;89.00;;;;;;4871351;28;92579;-86
2023/07/12 07:25:08;;;;;;;6.97;1.63;;;18.90;89.40;;;;;;4865961;28;96488;-85
2023/07/12 07:27:34;;;;;;;8.13;2.28;;;18.90;89.80;;;;;;4866495;28;96413;-86
2023/07/12 07:30:00;;;;;;;4.88;1.35;;;18.90;88.80;;;;;;4863993;28;92882;-85
2023/07/12 07:32:25;;;;;;;13.38;1.88;;;18.80;88.00;;;;;;4865812;28;91975;-86
2023/07/12 07:34:51;;;;;;;7.82;1.65;;;18.80;89.50;;;;;;4863708;28;94513;-85
2023/07/12 07:37:17;;;;;;;8.60;1.58;;;18.90;88.30;;;;;;4865600;28;95286;-86
2023/07/12 07:39:42;;;;;;;6.63;1.63;;;18.90;88.50;;;;;;4863584;28;93691;-84
2023/07/12 07:42:08;;;;;;;8.88;1.65;;;19.00;89.80;;;;;;4869156;28;92478;-83
2023/07/12 07:44:34;;;;;;;7.32;1.10;;;19.00;89.60;;;;;;4881317;28;96573;-83
2023/07/12 07:47:00;;;;;;;4.35;1.20;;;19.20;89.60;;;;;;4866472;28;92861;-83
2023/07/12 07:49:26;;;;;;;9.02;1.65;;;19.30;87.70;;;;;;4867812;28;92211;-83
2023/07/12 07:51:54;;;;;;;11.77;2.10;;;19.30;88.10;;;;;;4867595;28;92581;-88
2023/07/12 07:54:19;;;;;;;5.55;1.20;;;19.40;87.70;;;;;;4862040;28;95868;-83
2023/07/12 07:56:45;;;;;;;5.20;1.48;;;19.50;87.90;;;;;;4885094;28;92818;-82
2023/07/12 07:59:12;;;;;;;8.85;1.52;;;19.70;87.70;;;;;;4867077;28;92225;-82
2023/07/12 08:01:38;;;;;;;7.90;1.30;;;19.80;85.50;;;;;;4866228;28;92882;-84
2023/07/12 08:04:04;;;;;;;6.85;2.05;;;19.90;86.80;;;;;;4866408;28;96222;-84
2023/07/12 08:06:30;;;;;;;10.05;1.52;;;20.00;86.80;;;;;;4866459;28;95426;-81
2023/07/12 08:08:56;;;;;;;4.55;1.30;;;20.20;85.00;;;;;;4873030;28;92752;-83
2023/07/12 08:11:22;;;;;;;7.13;1.35;;;20.20;83.80;;;;;;4866953;28;92961;-84
2023/07/12 08:13:51;;;;;;;7.15;1.30;;;20.30;82.10;;;;;;4858735;28;95302;-83
2023/07/12 08:16:17;;;;;;;7.32;1.27;;;20.40;81.00;;;;;;4873211;28;95489;-81
2023/07/12 08:18:43;;;;;;;6.18;1.40;;;20.40;83.30;;;;;;4865409;28;92632;-82
2023/07/12 08:21:08;;;;;;;7.43;1.77;;;20.60;80.70;;;;;;4874517;28;92179;-81
2023/07/12 08:23:34;;;;;;;6.18;1.27;;;20.60;80.60;;;;;;4874314;28;96589;-82
2023/07/12 08:26:00;;;;;;;9.63;1.73;;;20.60;79.30;;;;;;4864204;28;96405;-85
2023/07/12 08:28:25;;;;;;;5.15;1.20;;;20.60;78.50;;;;;;4866211;28;93578;-85
2023/07/12 08:30:51;;;;;;;9.20;1.15;;;20.50;79.40;;;;;;4885066;28;92302;-85
2023/07/12 08:33:17;;;;;;;7.18;1.20;;;20.50;80.80;;;;;;4873615;28;95902;-85
2023/07/12 08:35:43;;;;;;;6.00;1.38;;;20.60;79.40;;;;;;4863483;28;96209;-85
2023/07/12 08:38:09;;;;;;;5.32;0.90;;;20.60;79.30;;;;;;4864926;28;92794;-85
2023/07/12 08:40:42;;;;;;;6.40;1.65;;;20.50;79.10;;;;;;4874723;28;92817;-84
2023/07/12 08:43:16;;;;;;;7.97;1.73;;;20.50;80.00;;;;;;4868795;28;95692;-85
2023/07/12 08:45:44;;;;;;;5.15;1.13;;;20.50;79.60;;;;;;4861235;28;94662;-85
2023/07/12 08:48:19;;;;;;;6.18;1.17;;;20.50;79.80;;;;;;4880322;28;92485;-84
2023/07/12 08:50:46;;;;;;;7.40;1.02;;;20.60;79.90;;;;;;4870929;28;92844;-83
2023/07/12 08:53:17;;;;;;;6.05;1.20;;;20.70;79.10;;;;;;4865942;28;96643;-85
2023/07/12 08:55:43;;;;;;;5.43;1.00;;;20.70;78.60;;;;;;4860283;28;96055;-86
2023/07/12 08:58:24;;;;;;;6.90;1.10;;;20.70;79.20;;;;;;4870091;28;92552;-86
2023/07/12 09:01:03;;;;;;;6.75;1.35;;;20.70;78.20;;;;;;4866263;28;92758;-85
2023/07/12 09:03:28;;;;;;;4.05;1.30;;;20.80;79.60;;;;;;4878837;28;95495;-85
2023/07/12 09:05:54;;;;;;;5.03;1.25;;;20.90;77.70;;;;;;4862627;28;94592;-84
2023/07/12 09:08:42;;;;;;;7.38;1.40;;;20.90;79.30;;;;;;4863177;28;92573;-84
2023/07/12 09:11:19;;;;;;;7.60;1.50;;;21.00;78.50;;;;;;4863635;28;94717;-83
2023/07/12 09:13:46;;;;;;;4.57;1.33;;;21.00;76.70;;;;;;4877536;28;95813;-83
2023/07/12 09:16:32;;;;;;;8.68;1.52;;;21.10;78.40;;;;;;4877599;28;93583;-81
2023/07/12 09:19:10;;;;;;;6.65;1.23;;;21.20;77.00;;;;;;4858877;28;93637;-80
2023/07/12 09:21:38;;;;;;;10.35;1.30;;;21.20;76.20;;;;;;4875705;28;92919;-81
2023/07/12 09:24:13;;;;;;;7.55;1.30;;;21.30;77.60;;;;;;4857526;28;96543;-80
2023/07/12 09:26:38;;;;;;;3.95;1.42;;;21.40;76.50;;;;;;4859304;28;96306;-81
2023/07/12 09:29:22;;;;;;;7.60;1.58;;;21.50;76.20;;;;;;4859598;28;92741;-81
2023/07/12 09:31:48;;;;;;;;;;;21.70;75.10;;;;;;4859576;28;92938;-83
2023/07/12 09:34:23;;;;;;;9.45;1.13;;;21.70;73.90;;;;;;4860902;28;96201;-81
2023/07/12 09:36:57;;;;;;;6.60;1.23;;;21.70;73.80;;;;;;4877323;28;92924;-82
2023/07/12 09:39:23;;;;;;;7.75;1.25;;;21.80;72.00;;;;;;4876450;28;92540;-81
2023/07/12 09:41:50;;;;;;;4.88;1.17;;;21.90;72.30;;;;;;4877165;28;92689;-81
2023/07/12 09:44:17;;;;;;;5.55;1.60;;;22.00;72.90;;;;;;4872702;28;97913;-81
2023/07/12 09:46:51;;;;;;;5.10;1.20;;;22.20;71.30;;;;;;4873379;28;96477;-81
2023/07/12 09:49:20;;;;;;;5.57;1.30;;;22.20;69.90;;;;;;4874451;28;93035;-81
2023/07/12 09:52:25;;;;;;;12.13;1.65;;;22.20;70.60;;;;;;4874924;28;92917;-81
2023/07/12 09:55:14;;;;;;;10.93;1.10;;;22.30;70.80;;;;;;4856965;28;96991;-81
2023/07/12 09:57:57;;;;;;;7.50;1.30;;;22.50;70.10;;;;;;4863994;28;96954;-81
2023/07/12 10:00:29;;;;;;;6.25;1.17;;;22.60;69.40;;;;;;4873429;28;92902;-81
2023/07/12 10:03:26;;;;;;;12.02;1.42;;;22.70;67.80;;;;;;4868767;28;92130;-81
2023/07/12 10:06:20;;;;;;;6.03;1.00;;;22.60;68.40;;;;;;4858897;28;96529;-81
2023/07/12 10:09:23;;;;;;;3.88;1.10;;;22.60;65.40;;;;;;4875266;28;92669;-81
2023/07/12 10:12:02;;;;;;;8.10;1.10;;;22.40;66.20;;;;;;4845283;28;94095;-80
2023/07/12 10:14:34;;;;;;;5.68;1.20;;;22.30;68.40;;;;;;4874066;28;92794;-80
2023/07/12 10:17:00;;;;;;;7.50;0.80;;;22.40;68.10;;;;;;4865042;28;97186;-81
2023/07/12 10:19:30;;;;;;;5.53;1.30;;;22.50;66.30;;;;;;4863122;28;96595;-82
2023/07/12 10:21:59;;;;;;;7.95;1.20;;;22.50;67.50;;;;;;4857445;28;93123;-82
2023/07/12 10:24:50;;;;;;;8.20;1.52;;;22.60;65.50;;;;;;4875342;28;92716;-82
2023/07/12 10:27:23;;;;;;;4.53;0.88;;;22.70;64.20;;;;;;4856832;28;95578;-81
2023/07/12 10:29:57;;;;;;;;;;;22.80;63.90;;;;;;4859460;28;96636;-82
2023/07/12 10:32:45;;;;;;;6.03;0.82;;;22.90;65.60;;;;;;4860791;28;92316;-81
2023/07/12 10:35:19;;;;;;;5.30;1.35;;;23.00;67.30;;;;;;4859142;28;93749;-81
2023/07/12 10:37:48;;;;;;;4.03;0.80;;;23.20;63.20;;;;;;4858051;28;98091;-81
2023/07/12 10:40:23;;;;;;;6.13;0.77;;;23.40;65.20;;;;;;4874505;28;97443;-81
2023/07/12 10:42:54;;;;;;;7.28;0.80;;;23.50;62.10;;;;;;4859660;28;92645;-81
2023/07/12 10:45:31;;;;;;;6.50;1.10;;;23.50;63.20;;;;;;4873634;28;93041;-81
2023/07/12 10:47:58;;;;;;;6.53;1.40;;;23.40;62.80;;;;;;4867615;28;95681;-81
2023/07/12 10:50:40;;;;;;;3.30;1.20;;;23.40;62.60;;;;;;4876976;28;93221;-83
2023/07/12 10:53:21;;;;;;;4.20;0.60;;;23.40;61.50;;;;;;4859772;28;92842;-83
2023/07/12 10:56:03;;;;;;;2.60;0.85;;;23.30;59.40;;;;;;4857779;28;92097;-81
2023/07/12 10:58:46;;;;;;;3.60;0.77;;;23.30;59.10;;;;;;4857462;28;96619;-84
2023/07/12 11:01:43;;;;;;;5.28;0.70;;;23.40;58.60;;;;;;4855622;28;94778;-82
2023/07/12 11:04:22;;;;;;;4.20;0.63;;;23.40;58.80;;;;;;4857630;28;93944;-81
2023/07/12 11:07:01;;;;;;;3.60;1.17;;;23.60;56.80;;;;;;4857418;28;93828;-81
2023/07/12 11:09:49;;;;;;;5.97;0.50;;;23.70;57.00;;;;;;4871890;28;96842;-81
2023/07/12 11:12:18;;;;;;;3.10;0.70;;;23.90;57.00;;;;;;4856933;28;96429;-81
2023/07/12 11:14:48;;;;;;;3.38;0.70;;;24.20;57.70;;;;;;4858165;28;92953;-81
2023/07/12 11:17:22;;;;;;;6.57;0.70;;;24.40;57.00;;;;;;4859584;28;93719;-81
2023/07/12 11:20:06;;;;;;;11.73;1.05;;;24.40;55.80;;;;;;4856702;28;96666;-81
2023/07/12 11:22:58;;;;;;;5.32;1.20;;;24.30;57.50;;;;;;4874323;28;93471;-81
2023/07/12 11:25:48;;;;;;;6.80;0.93;;;24.20;57.30;;;;;;4865610;28;92637;-81
2023/07/12 11:28:20;;;;;;;5.93;0.70;;;24.10;58.30;;;;;;4872446;28;92697;-81
2023/07/12 11:30:46;;;;;;;6.07;1.23;;;24.00;59.40;;;;;;4873374;28;94696;-81
2023/07/12 11:33:18;;;;;;;7.88;1.00;;;24.20;59.20;;;;;;4857240;28;96042;-81
2023/07/12 11:35:53;;;;;;;5.57;0.80;;;24.40;57.30;;;;;;4857685;28;92887;-81
2023/07/12 11:38:30;;;;;;;7.80;1.08;;;24.50;57.00;;;;;;4872648;28;92890;-81
2023/07/12 11:40:58;;;;;;;4.15;0.77;;;24.70;55.00;;;;;;4857548;28;96744;-82
2023/07/12 11:43:24;;;;;;;2.78;0.52;;;24.80;53.00;;;;;;4865251;28;96419;-82
2023/07/12 11:45:54;;;;;;;3.85;0.82;;;24.90;52.80;;;;;;4858155;28;92712;-82
2023/07/12 11:48:21;;;;;;;7.15;0.52;;;25.00;52.40;;;;;;4872101;28;91569;-82
2023/07/12 11:50:51;;;;;;;4.50;0.88;;;25.00;52.40;;;;;;4871913;28;95417;-81
2023/07/12 11:53:18;;;;;;;3.47;0.70;;;25.10;50.40;;;;;;4872142;28;96196;-80
2023/07/12 11:55:47;;;;;;;5.43;0.55;;;25.10;51.00;;;;;;4855893;28;93511;-80
2023/07/12 11:58:19;;;;;;;7.38;0.63;;;25.20;50.70;;;;;;4870443;28;93071;-80
2023/07/12 12:00:46;;;;;;;3.23;0.60;;;25.30;51.30;;;;;;4872839;28;97119;-81
2023/07/12 12:03:14;;;;;;;6.90;1.20;;;25.40;50.70;;;;;;4855706;28;94893;-81
2023/07/12 12:05:40;;;;;;;4.63;0.50;;;25.60;51.80;;;;;;4874100;28;93050;-80
2023/07/12 12:08:10;;;;;;;3.70;0.98;;;25.70;51.30;;;;;;4876364;28;92506;-80
2023/07/12 12:10:38;;;;;;;3.08;0.65;;;25.80;51.30;;;;;;4875961;28;95419;-80
2023/07/12 12:13:19;;;;;;;6.63;1.15;;;25.60;50.60;;;;;;4877693;28;93978;-79
2023/07/12 12:15:51;;;;;;;4.25;0.63;;;25.60;50.60;;;;;;4877782;28;93008;-80
2023/07/12 12:18:20;;;;;;;6.60;0.65;;;25.70;51.30;;;;;;4860463;28;92748;-79
2023/07/12 12:20:58;;;;;;;3.97;0.77;;;25.70;52.00;;;;;;4876069;28;94246;-80
2023/07/12 12:23:40;;;;;;;8.35;0.77;;;25.80;54.10;;;;;;4877054;28;95285;-79
2023/07/12 12:26:19;;;;;;;7.57;1.20;;;26.20;49.00;;;;;;4861570;28;92871;-79
2023/07/12 12:29:00;;;;;;;5.35;0.73;;;26.20;50.30;;;;;;4874839;28;93037;-80
2023/07/12 12:31:28;;;;;;;5.88;0.85;;;26.10;48.40;;;;;;4875251;28;96714;-79
2023/07/12 12:34:09;;;;;;;5.38;0.70;;;26.00;48.90;;;;;;4874435;28;93763;-79
2023/07/12 12:36:34;;;;;;;5.68;0.80;;;25.90;49.90;;;;;;4875132;28;92773;-79
2023/07/12 12:39:08;;;;;;;5.70;0.90;;;25.90;49.90;;;;;;4857105;28;92579;-79
2023/07/12 12:41:38;;;;;;;;;;;25.90;50.30;;;;;;4876184;28;93492;-79
2023/07/12 12:44:09;;;;;;;5.22;0.88;;;26.00;50.00;;;;;;4876937;28;97335;-80
2023/07/12 12:46:35;;;;;;;5.10;0.57;;;26.20;47.60;;;;;;4858644;28;93729;-80
2023/07/12 12:49:00;;;;;;;6.47;0.95;;;26.40;50.40;;;;;;4874118;28;92999;-79
2023/07/12 12:51:26;;;;;;;2.45;0.65;;;26.60;47.90;;;;;;4873531;28;97103;-79
2023/07/12 12:53:51;;;;;;;6.75;0.68;;;26.50;47.40;;;;;;4875372;28;93256;-79
2023/07/12 12:56:17;;;;;;;5.32;0.63;;;26.50;47.40;;;;;;4859520;28;92687;-79
2023/07/12 12:58:43;;;;;;;5.78;0.75;;;26.50;48.30;;;;;;4866101;28;92797;-80
2023/07/12 13:01:11;;;;;;;6.93;1.45;;;26.70;47.80;;;;;;4858289;28;96091;-80